Latest Weather Observations for Grafton Airport

IDN60801

Issued at 11:35 pm EST Wednesday 23 July 2014 (issued every 30 minutes, with the page automatically refreshed every 10 minutes)

About weather observations | Map of weather stations | Latest weather observations for NSW | Other Formats
Station Details ID: 058161 Name: GRAFTON AIRPORT AWS Lat: -29.76 Lon: 153.03 Height: 25.09 m
Data from the previous 72 hours. | See also: Recent months for locations in New South Wales
Date/Time
EST
Temp
°C
App
Temp
°C
Dew
Point
Rel
Hum
%
Delta-T
°C
Wind Press
QNH
hPa
Press
MSL
hPa
Rain
since 9 am
mm
Dir
 
Spd
km/h
Gust
km/h
Spd
kts
Gust
kts
23/11:30pm 8.2 6.4 8.1 99 0.0 S 7 9 4 5 1022.9 - 0.2
23/11:00pm 8.0 6.3 7.7 98 0.1 SW 6 7 3 4 1023.2 1023.2 0.2
23/10:30pm 7.7 5.9 7.3 97 0.2 SW 6 7 3 4 1023.1 - 0.2
23/10:00pm 7.7 5.8 6.8 94 0.4 WSW 6 7 3 4 1023.2 1023.2 0.2
23/09:30pm 8.3 6.1 7.7 96 0.3 S 9 13 5 7 1022.9 - 0.2
23/09:00pm 9.0 6.9 8.4 96 0.3 S 9 11 5 6 1023.1 1023.1 0.2
23/08:30pm 9.2 7.7 8.6 96 0.3 SSW 6 9 3 5 1023.2 - 0.2
23/08:00pm 9.4 7.9 8.3 93 0.5 S 6 11 3 6 1023.1 1023.1 0.2
23/07:30pm 9.6 8.0 8.0 90 0.8 SW 6 7 3 4 1022.7 - 0.2
23/07:00pm 10.5 10.1 8.3 86 1.1 CALM 0 0 0 0 1022.6 1022.6 0.2
23/06:30pm 11.9 10.5 9.5 85 1.2 SE 7 9 4 5 1022.5 - 0.2
23/06:00pm 12.6 11.0 8.7 77 1.9 SSE 7 9 4 5 1022.4 1022.4 0.2
23/05:30pm 14.9 13.6 9.1 68 3.0 SE 6 7 3 4 1022.2 - 0.2
23/05:00pm 15.8 13.8 8.8 63 3.6 SE 9 15 5 8 1021.9 1021.9 0.2
23/04:30pm 17.0 14.5 8.4 57 4.4 ESE 11 19 6 10 1021.3 - 0.2
23/04:00pm 17.9 14.9 7.6 51 5.2 ESE 13 20 7 11 1021.2 1021.2 0.2
23/03:30pm 18.2 15.7 8.2 52 5.1 SE 11 17 6 9 1021.1 - 0.2
23/03:00pm 18.5 15.1 7.6 49 5.5 SE 15 19 8 10 1020.9 1020.9 0.2
23/02:30pm 19.3 16.4 8.3 49 5.7 E 13 17 7 9 1020.9 - 0.2
23/02:00pm 18.3 16.2 8.3 52 5.1 ESE 9 15 5 8 1020.9 1020.9 0.2
23/01:30pm 18.6 15.8 8.6 52 5.2 ESE 13 19 7 10 1021.1 - 0.2
23/01:00pm 20.7 19.2 9.3 48 6.0 E 7 17 4 9 1021.3 1021.3 0.2
23/12:30pm 19.6 16.9 8.9 50 5.6 SSW 13 19 7 10 1021.9 - 0.0
23/12:00pm 18.0 15.5 8.0 52 5.1 S 11 17 6 9 1022.5 1022.5 0.0
23/11:30am 18.3 17.1 10.4 60 4.2 SSW 7 17 4 9 1023.2 - 0.0
23/11:00am 17.2 15.1 9.9 62 3.8 S 11 17 6 9 1023.7 1023.7 0.0
23/10:30am 16.1 14.3 9.3 64 3.5 WSW 9 13 5 7 1024.2 - 0.0
23/10:00am 14.8 13.8 10.2 74 2.4 W 6 9 3 5 1024.5 1024.5 0.0
23/09:30am 12.7 12.3 9.9 83 1.4 SW 2 7 1 4 1024.7 - 0.0
23/09:00am 10.6 9.9 8.4 86 1.1 NW 2 6 1 3 1024.5 1024.5 1.0
23/08:30am 9.1 8.8 8.5 96 0.3 CALM 0 4 0 2 1024.3 - 1.0
23/08:00am 7.1 6.4 7.0 99 0.0 CALM 0 0 0 0 1024.0 1024.0 1.0
23/07:51am 6.1 5.2 6.0 99 0.0 CALM 0 0 0 0 1023.8 - 1.0
23/07:31am 4.4 3.1 4.3 99 0.0 CALM 0 0 0 0 1023.7 - 1.0
23/07:30am 4.3 3.0 4.2 99 0.0 CALM 0 0 0 0 1023.7 - 1.0
23/07:22am 4.5 3.3 4.4 99 0.0 CALM 0 0 0 0 1023.7 - 1.0
23/07:00am 2.8 1.2 2.5 98 0.1 CALM 0 0 0 0 1023.4 1023.4 1.0
23/06:30am 3.6 2.2 3.5 99 0.0 CALM 0 0 0 0 1023.2 - 0.8
23/06:21am 3.4 2.0 3.3 99 0.0 CALM 0 0 0 0 1022.9 - 0.8
23/06:18am 3.4 2.0 3.3 99 0.0 CALM 0 0 0 0 1022.9 - 0.8
23/06:00am 3.2 1.7 3.1 99 0.0 ESE 0 0 0 0 1022.7 1022.7 0.8
23/05:58am 3.3 1.8 3.2 99 0.0 CALM 0 0 0 0 1022.6 - 0.8
23/05:46am 3.3 0.7 3.2 99 0.0 SSW 6 6 3 3 1022.4 - 0.8
23/05:30am 3.3 1.8 3.0 98 0.1 CALM 0 7 0 4 1022.2 - 0.8
23/05:25am 3.3 1.8 3.0 98 0.1 CALM 0 0 0 0 1022.2 - 0.8
23/05:16am 3.5 2.1 3.4 99 0.0 CALM 0 0 0 0 1022.2 - 0.8
23/05:00am 3.9 2.5 3.8 99 0.0 CALM 0 0 0 0 1022.1 1022.1 0.8
23/04:31am 3.9 2.5 3.8 99 0.0 CALM 0 0 0 0 1021.9 - 0.8
23/04:30am 4.0 2.7 3.9 99 0.0 CALM 0 0 0 0 1021.9 - 0.8
23/04:07am 3.9 1.2 3.8 99 0.0 S 7 9 4 5 1021.8 - 0.8
23/04:00am 4.4 2.8 4.3 99 0.0 SW 2 7 1 4 1021.8 1021.8 0.8
23/03:30am 3.8 2.0 3.5 98 0.1 WNW 2 6 1 3 1021.8 - 0.8
23/03:24am 4.8 2.9 4.7 99 0.0 SSW 4 7 2 4 1021.9 - 0.8
23/03:00am 5.6 3.4 5.5 99 0.0 SSW 6 7 3 4 1022.1 1022.1 0.8
23/02:44am 4.5 1.9 4.4 99 0.0 SW 7 7 4 4 1021.9 - 0.8
23/02:30am 4.2 2.8 3.8 97 0.2 CALM 0 7 0 4 1022.0 - 0.8
23/02:00am 5.7 3.9 5.6 99 0.0 S 4 7 2 4 1022.3 1022.3 0.8
23/01:30am 5.2 4.1 5.1 99 0.0 CALM 0 0 0 0 1022.6 - 0.8
23/01:24am 5.1 3.9 4.8 98 0.1 CALM 0 0 0 0 1022.5 - 0.8
23/01:00am 5.7 4.3 5.4 98 0.1 SSW 2 7 1 4 1022.3 1022.3 0.8
23/12:52am 5.6 3.3 5.5 99 0.0 S 7 9 4 5 1022.4 - 0.8
23/12:31am 5.8 3.6 5.5 98 0.1 S 6 9 3 5 1022.3 - 0.8
23/12:30am 5.8 3.7 5.7 99 0.0 S 6 9 3 5 1022.3 - 0.8
23/12:00am 6.3 5.4 6.0 98 0.1 SE 0 0 0 0 1022.5 1022.5 0.8
 
Date/Time
EST
Temp
°C
App
Temp
°C
Dew
Point
Rel
Hum
%
Delta-T
°C
Wind Press
QNH
hPa
Press
MSL
hPa
Rain
since 9 am
mm
Dir
 
Spd
km/h
Gust
km/h
Spd
kts
Gust
kts
22/11:30pm 8.2 7.0 8.1 99 0.0 SSW 4 7 2 4 1022.5 - 0.8
22/11:00pm 6.2 5.2 5.5 95 0.3 CALM 0 0 0 0 1022.6 1022.6 0.8
22/10:30pm 7.8 6.1 7.7 99 0.0 S 6 9 3 5 1022.4 - 0.8
22/10:00pm 7.3 6.1 6.6 95 0.3 S 2 7 1 4 1022.6 1022.6 0.8
22/09:50pm 8.4 6.9 8.3 99 0.0 SSW 6 7 3 4 1022.6 - 0.8
22/09:39pm 8.8 6.8 8.7 99 0.0 S 9 13 5 7 1022.6 - 0.8
22/09:30pm 9.0 7.1 8.9 99 0.0 S 9 11 5 6 1022.7 - 0.8
22/09:00pm 8.3 7.7 7.5 95 0.4 CALM 0 0 0 0 1022.9 1022.9 0.8
22/08:30pm 10.0 10.0 9.9 99 0.1 CALM 0 0 0 0 1022.7 - 0.8
22/08:00pm 10.0 9.9 9.4 96 0.3 CALM 0 0 0 0 1022.7 1022.7 0.8
22/07:36pm 10.2 9.2 9.0 92 0.6 S 4 7 2 4 1022.8 - 0.8
22/07:30pm 11.1 10.0 10.5 96 0.3 S 7 7 4 4 1022.8 - 0.8
22/07:00pm 11.3 11.2 10.7 96 0.3 SW 2 9 1 5 1022.6 1022.6 0.8
22/06:30pm 12.3 12.7 11.2 93 0.6 CALM 0 0 0 0 1022.3 - 0.8
22/06:00pm 12.9 12.2 11.3 90 0.8 W 6 9 3 5 1021.9 1021.9 0.8
22/05:30pm 14.4 13.0 10.8 79 1.9 SSE 9 15 5 8 1021.4 - 0.8
22/05:00pm 15.0 12.6 11.4 79 1.9 SSE 15 20 8 11 1021.1 1021.1 0.8
22/04:30pm 14.4 13.5 12.6 89 1.0 S 9 13 5 7 1020.6 - 0.8
22/04:00pm 14.3 13.0 12.5 89 1.0 ESE 11 13 6 7 1020.7 1020.7 0.8
22/03:30pm 14.4 13.9 12.1 86 1.2 WSW 6 9 3 5 1020.7 - 0.6
22/03:00pm 15.8 13.6 10.8 72 2.7 S 13 20 7 11 1020.3 1020.3 0.0
22/02:30pm 17.9 14.5 9.0 56 4.6 ESE 17 22 9 12 1019.8 - 0.0
22/02:00pm 20.5 18.3 10.9 54 5.2 E 13 20 7 11 1019.6 1019.6 0.0
22/01:30pm 18.4 15.9 9.7 57 4.6 ESE 13 19 7 10 1019.7 - 0.0
22/01:00pm 18.6 17.3 9.9 57 4.6 E 7 11 4 6 1019.9 1019.9 0.0
22/12:30pm 18.9 16.6 9.1 53 5.1 ESE 11 20 6 11 1020.6 - 0.0
22/12:00pm 19.4 17.0 10.1 55 5.0 SSE 13 19 7 10 1021.2 1021.2 0.0
22/11:30am 18.2 16.0 9.5 57 4.6 SSE 11 17 6 9 1021.8 - 0.0
22/11:00am 18.2 16.5 9.8 58 4.4 SE 9 15 5 8 1022.3 1022.3 0.0
22/10:30am 18.7 17.6 10.5 59 4.4 SSE 7 11 4 6 1022.6 - 0.0
22/10:00am 17.2 17.2 11.0 67 3.3 SSW 2 9 1 5 1023.0 1023.0 0.0
22/09:30am 15.3 14.0 10.1 71 2.7 SSW 7 9 4 5 1023.3 - 0.0
22/09:00am 14.4 13.6 11.6 83 1.5 S 7 9 4 5 1023.1 1023.1 0.0
22/08:30am 12.7 10.9 10.8 88 1.0 S 11 15 6 8 1022.9 - 0.0
22/08:00am 11.5 10.1 11.0 97 0.3 S 9 11 5 6 1022.8 1022.8 0.0
22/07:30am 9.4 7.2 9.3 99 0.0 S 11 13 6 7 1022.8 - 0.0
22/07:16am 9.1 7.2 9.0 99 0.0 SSW 9 9 5 5 1022.9 - 0.0
22/07:00am 8.6 8.3 8.5 99 0.0 CALM 0 6 0 3 1022.7 1022.7 0.0
22/06:30am 9.2 8.2 8.9 98 0.1 S 4 7 2 4 1022.3 - 0.0
22/06:25am 9.2 7.6 8.7 97 0.2 S 7 9 4 5 1022.2 - 0.0
22/06:10am 10.0 9.3 9.9 99 0.1 SSW 4 9 2 5 1022.1 - 0.0
22/06:00am 9.6 9.1 9.3 98 0.1 WSW 2 7 1 4 1022.2 1022.2 0.0
22/05:40am 9.8 9.7 9.3 97 0.2 CALM 0 0 0 0 1022.1 - 0.0
22/05:30am 9.7 9.5 9.2 97 0.2 CALM 0 0 0 0 1022.0 - 0.0
22/05:14am 10.1 10.1 9.8 98 0.2 CALM 0 0 0 0 1021.8 - 0.0
22/05:00am 9.9 9.8 9.6 98 0.1 CALM 0 0 0 0 1021.5 1021.5 0.0
22/04:35am 9.8 8.9 9.2 96 0.3 ESE 4 7 2 4 1021.5 - 0.0
22/04:30am 10.0 8.8 9.4 96 0.3 SE 6 9 3 5 1021.4 - 0.0
22/04:00am 10.6 10.7 10.0 96 0.3 CALM 0 0 0 0 1021.4 1021.4 0.0
22/03:30am 10.6 10.6 9.8 95 0.4 CALM 0 0 0 0 1021.5 - 0.0
22/03:00am 11.5 11.7 10.6 94 0.5 CALM 0 0 0 0 1021.7 1021.7 0.0
22/02:30am 11.3 11.4 10.2 93 0.6 CALM 0 0 0 0 1021.8 - 0.0
22/02:00am 11.6 11.7 10.3 92 0.7 CALM 0 0 0 0 1021.9 1021.9 0.0
22/01:30am 11.9 12.1 10.5 91 0.7 CALM 0 0 0 0 1022.1 - 0.0
22/01:00am 12.2 12.4 10.6 90 0.8 CALM 0 0 0 0 1022.3 1022.3 0.0
22/12:30am 12.7 11.7 10.9 89 0.9 SSW 7 9 4 5 1022.4 - 0.0
22/12:00am 12.6 11.7 10.8 89 0.9 SW 6 7 3 4 1022.6 1022.6 0.0
 
Date/Time
EST
Temp
°C
App
Temp
°C
Dew
Point
Rel
Hum
%
Delta-T
°C
Wind Press
QNH
hPa
Press
MSL
hPa
Rain
since 9 am
mm
Dir
 
Spd
km/h
Gust
km/h
Spd
kts
Gust
kts
21/11:30pm 12.5 12.1 11.1 91 0.7 SW 4 7 2 4 1022.7 - 0.0
21/11:00pm 12.4 12.4 11.0 91 0.7 WSW 2 6 1 3 1022.9 1022.9 0.0
21/10:30pm 12.5 11.7 11.1 91 0.7 SSW 6 9 3 5 1023.1 - 0.0
21/10:00pm 12.4 12.8 11.1 92 0.7 CALM 0 0 0 0 1023.4 1023.4 0.0
21/09:30pm 12.0 12.2 10.7 92 0.7 CALM 0 0 0 0 1023.5 - 0.0
21/09:00pm 12.3 11.4 10.7 90 0.8 ENE 6 9 3 5 1023.4 1023.4 0.0
21/08:30pm 12.8 11.8 10.9 88 1.0 S 7 7 4 4 1023.5 - 0.0
21/08:00pm 13.0 12.2 10.9 87 1.1 WSW 6 7 3 4 1023.5 1023.5 0.0
21/07:30pm 13.4 12.3 10.8 84 1.4 SSW 7 11 4 6 1023.3 - 0.0
21/07:00pm 13.9 12.6 11.1 83 1.5 SSW 9 13 5 7 1023.3 1023.3 0.0
21/06:30pm 14.1 12.6 10.7 80 1.8 S 9 13 5 7 1023.0 - 0.0
21/06:00pm 14.5 13.3 11.5 82 1.6 S 9 15 5 8 1022.6 1022.6 0.0
21/05:30pm 14.6 13.0 11.7 83 1.6 SE 11 17 6 9 1022.5 - 0.0
21/05:00pm 15.5 12.7 11.3 76 2.2 SE 17 22 9 12 1022.4 1022.4 0.0
21/04:30pm 16.4 14.5 10.5 68 3.1 SE 11 17 6 9 1022.1 - 0.0
21/04:00pm 17.1 15.2 10.5 65 3.5 S 11 15 6 8 1021.9 1021.9 0.0
21/03:30pm 17.5 15.9 10.1 62 3.9 SE 9 13 5 7 1021.7 - 0.0
21/03:00pm 17.8 15.7 9.9 60 4.2 SSE 11 17 6 9 1021.6 1021.6 0.0
21/02:30pm 17.5 14.7 9.9 61 4.0 SSE 15 20 8 11 1021.5 - 0.0
21/02:00pm 17.3 17.0 12.6 74 2.6 S 6 9 3 5 1021.6 1021.6 0.0
21/01:30pm 16.7 17.1 12.5 76 2.3 ENE 2 7 1 4 1021.8 - 0.0
21/01:01pm 15.3 13.4 11.7 79 1.9 SSE 13 20 7 11 1022.2 - 0.0
21/01:00pm 15.4 13.6 12.0 80 1.8 SSE 13 20 7 11 1022.2 1022.2 0.0
21/12:30pm 17.3 15.4 10.4 64 3.7 S 11 17 6 9 1022.6 - 0.0
21/12:00pm 17.6 15.9 10.0 61 4.0 SSE 9 13 5 7 1023.0 1023.0 0.0
21/11:30am 18.1 16.1 10.2 60 4.2 S 11 17 6 9 1023.5 - 0.0
21/11:00am 18.0 15.2 10.1 60 4.2 SSE 15 19 8 10 1024.0 1024.0 0.0
21/10:30am 17.9 15.5 10.0 60 4.2 S 13 20 7 11 1024.3 - 0.0
21/10:00am 17.0 15.0 10.1 64 3.6 SSW 11 19 6 10 1024.5 1024.5 0.0
21/09:30am 16.1 14.5 10.2 68 3.1 SSW 9 17 5 9 1024.7 - 0.0
21/09:00am 15.3 14.0 10.1 71 2.7 SW 7 11 4 6 1024.6 1024.6 0.0
21/08:30am 14.8 13.6 10.4 75 2.3 SSW 7 11 4 6 1024.6 - 0.0
21/08:00am 13.6 12.6 10.4 81 1.7 SW 6 7 3 4 1024.4 1024.4 0.0
21/07:30am 11.8 11.9 10.0 89 0.9 CALM 0 0 0 0 1024.0 - 0.0
21/07:00am 11.5 10.2 9.2 86 1.1 SW 6 7 3 4 1023.8 1023.8 0.0
21/06:30am 11.8 11.0 9.7 87 1.1 SSW 4 7 2 4 1023.6 - 0.0
21/06:00am 11.9 11.1 9.8 87 1.1 SSW 4 7 2 4 1023.4 1023.4 0.0
21/05:30am 11.6 10.2 9.7 88 1.0 SSW 7 9 4 5 1022.9 - 0.0
21/05:00am 11.9 11.1 9.5 85 1.2 SW 4 7 2 4 1022.7 1022.7 0.0
21/04:30am 12.9 11.7 9.5 80 1.7 SSW 6 7 3 4 1022.5 - 0.0
21/04:00am 12.8 10.7 9.6 81 1.6 S 11 13 6 7 1022.3 1022.3 0.0
21/03:30am 13.0 10.5 9.8 81 1.6 S 13 19 7 10 1022.4 - 0.0
21/03:00am 12.4 10.6 9.6 83 1.4 SSW 9 13 5 7 1022.4 1022.4 0.0
21/02:30am 12.0 10.5 9.2 83 1.4 SW 7 9 4 5 1022.5 - 0.0
21/02:00am 11.9 10.4 9.3 84 1.3 WSW 7 9 4 5 1022.5 1022.5 0.0
21/01:30am 12.5 11.0 9.3 81 1.6 SSW 7 9 4 5 1022.5 - 0.0
21/01:00am 12.1 10.6 9.3 83 1.4 S 7 11 4 6 1022.6 1022.6 0.0
21/12:30am 12.2 10.8 9.6 84 1.3 S 7 9 4 5 1022.7 - 0.0
21/12:00am 11.4 10.1 9.1 86 1.1 SW 6 7 3 4 1022.8 1022.8 0.0

Other Formats:

Comma delimited format used in spreadsheet applications
http://www.bom.gov.au/fwo/IDN60801/IDN60801.95570.axf

JavaScript Object Notation format (JSON) in row-major order
http://www.bom.gov.au/fwo/IDN60801/IDN60801.95570.json